Data for 09/16/2006

Time Sea-Level Adjusted Pressure Absolute Pressure Temperature Relative Humidity Dew Point   
(mb) (inHg) (mb) (inHg) (C) (F) (%) (C) (F)
00:05 1008 29.77 837 24.72 4.6 40.3 94 3.8 38.8
00:10 1008 29.77 837 24.72 4.6 40.4 94 3.8 38.8
00:15 1008 29.77 837 24.72 4.6 40.3 94 3.8 38.8
00:20 1008 29.77 837 24.72 4.7 40.4 94 3.8 38.8
00:25 1008 29.77 837 24.72 4.6 40.3 94 3.7 38.6
00:30 1008 29.77 837 24.72 4.7 40.4 93 3.7 38.6
00:35 1008 29.77 837 24.72 4.6 40.3 92 3.4 38.2
00:40 1008 29.77 837 24.72 4.6 40.3 93 3.6 38.5
00:45 1008 29.77 837 24.72 4.7 40.5 93 3.7 38.6
00:50 1008 29.77 837 24.72 4.7 40.5 93 3.7 38.7
00:55 1008 29.77 837 24.72 4.5 40.2 92 3.4 38.1
01:00 1008 29.77 837 24.72 4.3 39.7 93 3.3 38
01:05 1008 29.77 838 24.75 4.3 39.8 94 3.4 38.1
01:10 1008 29.77 838 24.75 4.4 39.9 94 3.4 38.2
01:15 1008 29.77 838 24.75 4.5 40 93 3.4 38.1
01:20 1008 29.77 838 24.75 4.4 39.9 92 3.2 37.8
01:25 1008 29.77 838 24.75 4 39.2 91 2.6 36.8
01:30 1009 29.8 838 24.75 3.7 38.7 91 2.4 36.4
01:35 1009 29.8 838 24.75 3.7 38.7 92 2.6 36.7
01:40 1009 29.8 838 24.75 3.8 38.8 91 2.5 36.5
01:45 1009 29.8 838 24.75 3.6 38.5 91 2.3 36.2
01:50 1009 29.8 838 24.75 3.4 38.2 92 2.2 36
01:55 1009 29.8 838 24.75 3.3 37.9 93 2.2 36
02:00 1009 29.8 838 24.75 3.4 38.1 94 2.5 36.5
02:05 1009 29.8 838 24.75 3.7 38.7 93 2.7 36.9
02:10 1009 29.8 838 24.75 3.8 38.8 92 2.6 36.7
02:15 1009 29.8 838 24.75 3.8 38.9 93 2.8 37
02:20 1009 29.8 838 24.75 3.7 38.7 92 2.5 36.5
02:25 1009 29.8 838 24.75 3.6 38.4 93 2.5 36.5
02:30 1009 29.8 838 24.75 3.6 38.4 93 2.5 36.5
02:35 1009 29.8 838 24.75 3.5 38.4 93 2.5 36.4
02:40 1009 29.8 838 24.75 3.5 38.2 92 2.3 36.2
02:45 1009 29.8 838 24.75 3.4 38.1 92 2.2 36
02:50 1009 29.8 838 24.75 3.4 38.1 91 2.1 35.7
02:55 1009 29.8 838 24.75 3.3 38 92 2.1 35.8
03:00 1009 29.8 838 24.75 3.2 37.8 92 2 35.6
03:05 1009 29.8 838 24.75 3.2 37.8 92 2 35.7
03:10 1009 29.8 838 24.75 3.2 37.8 92 2.1 35.7
03:15 1009 29.8 838 24.75 3.1 37.7 92 1.9 35.5
03:20 1009 29.8 838 24.75 3.1 37.7 92 2 35.6
03:25 1009 29.8 838 24.75 3.1 37.6 92 2 35.6
03:30 1009 29.8 838 24.75 3.2 37.7 92 2 35.5
03:35 1009 29.8 838 24.75 3.2 37.7 91 1.9 35.5
03:40 1009 29.8 838 24.75 3.2 37.7 91 1.9 35.4
03:45 1009 29.8 838 24.75 3.1 37.6 92 1.9 35.4
03:50 1009 29.8 838 24.75 3.2 37.7 92 2 35.5
03:55 1009 29.8 838 24.75 3.1 37.5 93 2 35.6
04:00 1009 29.8 839 24.78 3.1 37.6 94 2.1 35.9
04:05 1009 29.8 839 24.78 2.9 37.3 94 2.1 35.8
04:10 1009 29.8 839 24.78 2.8 37.1 95 2.1 35.8
04:15 1009 29.8 839 24.78 2.8 37 95 2.1 35.8
04:20 1010 29.83 839 24.78 2.8 37 96 2.1 35.8
04:25 1010 29.83 839 24.78 2.9 37.2 96 2.3 36.1
04:30 1010 29.83 839 24.78 2.9 37.2 96 2.2 36
04:35 1010 29.83 839 24.78 2.9 37.1 96 2.3 36.1
04:40 1010 29.83 839 24.78 2.9 37.2 96 2.2 36
04:45 1010 29.83 839 24.78 2.8 37.1 96 2.2 36
04:50 1010 29.83 839 24.78 2.9 37.1 96 2.3 36.1
04:55 1010 29.83 839 24.78 2.9 37.3 96 2.3 36.2
05:00 1010 29.83 839 24.78 3 37.5 95 2.3 36.1
05:05 1010 29.83 839 24.78 3.1 37.6 94 2.3 36.1
05:10 1010 29.83 839 24.78 3.1 37.6 94 2.2 35.9
05:15 1010 29.83 839 24.78 3 37.3 94 2 35.7
05:20 1010 29.83 839 24.78 3 37.4 92 1.8 35.3
05:25 1010 29.83 839 24.78 2.9 37.3 93 1.9 35.4
05:30 1010 29.83 839 24.78 3 37.4 93 2 35.6
05:35 1010 29.83 839 24.78 2.9 37.2 93 1.9 35.4
05:40 1010 29.83 839 24.78 2.8 37.1 93 1.9 35.4
05:45 1010 29.83 839 24.78 2.7 36.9 94 1.9 35.4
05:50 1010 29.83 840 24.81 2.7 36.9 95 2 35.6
05:55 1010 29.83 840 24.81 2.5 36.6 95 1.8 35.3
06:00 1010 29.83 840 24.81 2.5 36.4 96 1.9 35.4
06:05 1011 29.85 840 24.81 2.4 36.4 96 1.9 35.4
06:10 1011 29.85 840 24.81 2.5 36.4 96 1.9 35.5
06:15 1011 29.85 840 24.81 2.4 36.3 96 1.8 35.2
06:20 1011 29.85 840 24.81 2.3 36.1 96 1.7 35
06:25 1011 29.85 840 24.81 2.1 35.9 96 1.6 34.9
06:30 1011 29.85 840 24.81 2.1 35.8 96 1.6 34.9
06:35 1011 29.85 840 24.81 2.2 35.9 96 1.7 35
06:40 1011 29.85 840 24.81 2.3 36.1 96 1.8 35.2
06:45 1011 29.85 840 24.81 2.3 36.2 96 1.8 35.2
06:50 1011 29.85 840 24.81 2.3 36.1 96 1.7 35
06:55 1011 29.85 840 24.81 2.3 36.1 96 1.7 35
07:00 1011 29.85 841 24.83 2.2 36 96 1.6 34.8
07:05 1011 29.85 841 24.83 2.1 35.8 96 1.5 34.7
07:10 1011 29.85 841 24.83 2 35.7 96 1.5 34.6
07:15 1012 29.88 841 24.83 2 35.6 96 1.4 34.5
07:20 1012 29.88 841 24.83 1.9 35.4 96 1.3 34.4
07:25 1012 29.88 841 24.83 1.8 35.3 96 1.3 34.4
07:30 1012 29.88 841 24.83 1.8 35.3 96 1.3 34.4
07:35 1012 29.88 841 24.83 1.9 35.4 96 1.4 34.4
07:40 1012 29.88 841 24.83 1.9 35.4 96 1.4 34.5
07:45 1012 29.88 841 24.83 2 35.7 97 1.5 34.8
07:50 1012 29.88 841 24.83 2.1 35.8 96 1.6 34.8
07:55 1012 29.88 841 24.83 2.1 35.8 96 1.5 34.8
08:00 1012 29.88 841 24.83 2.1 35.8 96 1.5 34.8
08:05 1012 29.88 841 24.83 2.1 35.7 96 1.5 34.6
08:10 1012 29.88 842 24.86 2 35.7 96 1.4 34.5
08:15 1012 29.88 842 24.86 2.1 35.7 96 1.5 34.6
08:20 1012 29.88 842 24.86 2.1 35.8 95 1.4 34.6
08:25 1012 29.88 842 24.86 2 35.6 95 1.4 34.5
08:30 1013 29.91 842 24.86 1.9 35.5 95 1.2 34.2
08:35 1013 29.91 842 24.86 1.7 35 95 1 33.8
08:40 1013 29.91 842 24.86 1.6 34.8 96 1 33.7
08:45 1013 29.91 842 24.86 1.6 34.9 96 1 33.8
08:50 1013 29.91 842 24.86 1.6 34.9 97 1.1 34
08:55 1013 29.91 842 24.86 1.8 35.2 96 1.3 34.3
09:00 1013 29.91 842 24.86 2.2 35.9 95 1.5 34.7
09:05 1013 29.91 842 24.86 2.3 36.1 95 1.5 34.8
09:10 1013 29.91 842 24.86 2.4 36.4 95 1.6 34.9
09:15 1013 29.91 842 24.86 2.4 36.3 94 1.6 34.8
09:20 1013 29.91 842 24.86 2.3 36.2 94 1.5 34.7
09:25 1013 29.91 842 24.86 2.4 36.3 94 1.5 34.7
09:30 1013 29.91 842 24.86 2.3 36.2 94 1.4 34.6
09:35 1013 29.91 842 24.86 2.3 36.1 95 1.5 34.7
09:40 1013 29.91 842 24.86 2.3 36.2 95 1.6 34.9
09:45 1013 29.91 843 24.89 2.3 36.1 94 1.4 34.5
09:50 1013 29.91 843 24.89 2.2 35.9 95 1.4 34.5
09:55 1014 29.94 843 24.89 2.2 36 94 1.4 34.5
10:00 1014 29.94 843 24.89 2.4 36.3 94 1.5 34.8
10:05 1014 29.94 843 24.89 2.7 36.9 93 1.7 35
10:10 1014 29.94 843 24.89 2.8 37.1 90 1.4 34.4
10:15 1014 29.94 843 24.89 2.9 37.2 88 1.1 34.1
10:20 1014 29.94 843 24.89 2.9 37.2 88 1.1 34
10:25 1014 29.94 843 24.89 2.8 37.1 87 0.9 33.7
10:30 1014 29.94 843 24.89 2.9 37.1 87 0.9 33.7
10:35 1014 29.94 843 24.89 2.9 37.2 87 0.9 33.6
10:40 1014 29.94 843 24.89 3 37.5 87 1.1 34
10:45 1014 29.94 843 24.89 3.1 37.5 87 1.1 33.9
10:50 1014 29.94 844 24.92 3.1 37.6 88 1.2 34.2
10:55 1014 29.94 844 24.92 3.2 37.8 86 1 33.8
11:00 1015 29.97 844 24.92 3.2 37.8 85 1 33.8
11:05 1015 29.97 844 24.92 3.3 38 83 0.8 33.4
11:10 1015 29.97 844 24.92 3.5 38.2 82 0.6 33.1
11:15 1015 29.97 844 24.92 3.7 38.7 79 0.5 32.8
11:20 1015 29.97 844 24.92 3.6 38.6 77 -0.1 31.9
11:25 1015 29.97 844 24.92 3.8 38.8 76 -0.1 31.8
11:30 1015 29.97 844 24.92 3.9 38.9 79 0.5 32.9
11:35 1015 29.97 844 24.92 4.2 39.6 75 0.3 32.5
11:40 1015 29.97 844 24.92 4.2 39.5 77 0.5 33
11:45 1015 29.97 845 24.95 4.2 39.5 75 0.1 32.1
11:50 1015 29.97 845 24.95 4.2 39.5 74 -0.1 31.8
11:55 1016 30 845 24.95 4.3 39.7 72 -0.4 31.3
12:00 1016 30 845 24.95 4.5 40.1 72 -0.1 31.8
12:05 1016 30 845 24.95 4.6 40.3 70 -0.4 31.2
12:10 1016 30 845 24.95 4.6 40.2 71 -0.2 31.6
12:15 1016 30 845 24.95 4.5 40.2 71 -0.3 31.5
12:20 1016 30 845 24.95 4.6 40.3 69 -0.7 30.8
12:25 1016 30 845 24.95 4.7 40.5 67 -0.8 30.6
12:30 1016 30 845 24.95 4.6 40.3 69 -0.5 31.1
12:35 1016 30 845 24.95 4.5 40.1 70 -0.5 31.1
12:40 1016 30 845 24.95 4.5 40.1 70 -0.4 31.3
12:45 1016 30 845 24.95 4.7 40.5 72 -0 32
12:50 1016 30 845 24.95 4.8 40.6 74 0.5 33
12:55 1016 30 845 24.95 4.2 39.6 81 1.3 34.3
13:00 1016 30 845 24.95 4.2 39.6 79 0.8 33.5
13:05 1016 30 845 24.95 4.2 39.6 78 0.8 33.5
13:10 1016 30 845 24.95 4.6 40.2 76 0.8 33.4
13:15 1016 30 845 24.95 4.6 40.2 77 0.8 33.5
13:20 1016 30 845 24.95 4.4 39.9 76 0.6 33.1
13:25 1016 30 845 24.95 4.4 39.9 78 0.9 33.6
13:30 1016 30 846 24.98 4.4 39.9 78 0.8 33.5
13:35 1016 30 846 24.98 4.7 40.4 76 0.8 33.4
13:40 1016 30 846 24.98 4.8 40.6 76 1 33.8
13:45 1016 30 846 24.98 4.8 40.6 74 0.5 32.9
13:50 1016 30 846 24.98 5 40.9 71 0.1 32.2
13:55 1016 30 846 24.98 5.1 41.2 73 0.7 33.2
14:00 1017 30.03 846 24.98 5.1 41.1 72 0.4 32.7
14:05 1017 30.03 846 24.98 5 41 72 0.4 32.7
14:10 1017 30.03 846 24.98 5.1 41.3 73 0.7 33.3
14:15 1017 30.03 846 24.98 5.2 41.4 71 0.3 32.6
14:20 1017 30.03 846 24.98 5.2 41.4 72 0.6 33.1
14:25 1017 30.03 846 24.98 5.1 41.1 73 0.6 33.1
14:30 1017 30.03 846 24.98 4.9 40.9 76 1 33.8
14:35 1017 30.03 846 24.98 4.9 40.7 73 0.4 32.7
14:40 1017 30.03 846 24.98 4.8 40.7 74 0.6 33
14:45 1017 30.03 846 24.98 4.9 40.9 73 0.5 32.8
14:50 1017 30.03 846 24.98 5 41.1 73 0.6 33
14:55 1017 30.03 846 24.98 5.1 41.2 73 0.7 33.2
15:00 1017 30.03 846 24.98 5.3 41.5 72 0.6 33
15:05 1017 30.03 846 24.98 5.4 41.8 70 0.4 32.8
15:10 1017 30.03 846 24.98 5.6 42.1 69 0.4 32.7
15:15 1017 30.03 846 24.98 5.4 41.7 71 0.5 33
15:20 1017 30.03 846 24.98 5.4 41.7 72 0.6 33.2
15:25 1017 30.03 846 24.98 5.3 41.6 71 0.6 33.1
15:30 1017 30.03 846 24.98 5.5 41.8 69 0.3 32.6
15:35 1017 30.03 846 24.98 5.5 41.8 70 0.4 32.8
15:40 1017 30.03 846 24.98 5.3 41.6 69 0.1 32.2
15:45 1017 30.03 846 24.98 5.3 41.5 71 0.4 32.7
15:50 1017 30.03 846 24.98 5.1 41.2 74 0.8 33.4
15:55 1017 30.03 846 24.98 5.3 41.5 74 1 33.8
16:00 1017 30.03 846 24.98 5.2 41.4 75 1.2 34.1
16:05 1017 30.03 847 25.01 5.5 41.8 74 1.2 34.1
16:10 1017 30.03 847 25.01 5.7 42.3 71 0.9 33.7
16:15 1017 30.03 847 25.01 5.5 41.9 71 0.7 33.3
16:20 1017 30.03 847 25.01 5.7 42.2 71 0.8 33.5
16:25 1018 30.06 847 25.01 5.7 42.2 70 0.7 33.2
16:30 1018 30.06 847 25.01 5.6 42.1 71 0.8 33.5
16:35 1018 30.06 847 25.01 5.6 42.1 72 0.9 33.6
16:40 1018 30.06 847 25.01 5.8 42.4 71 1 33.7
16:45 1018 30.06 847 25.01 5.9 42.6 70 0.9 33.6
16:50 1018 30.06 847 25.01 5.8 42.5 71 1.1 33.9
16:55 1018 30.06 847 25.01 5.7 42.3 72 1.1 33.9
17:00 1018 30.06 847 25.01 5.7 42.2 72 1 33.8
17:05 1018 30.06 847 25.01 5.6 42 73 1.1 33.9
17:10 1018 30.06 847 25.01 5.4 41.7 73 1 33.7
17:15 1018 30.06 847 25.01 5.1 41.2 75 1.1 33.9
17:20 1018 30.06 847 25.01 5.1 41.3 77 1.4 34.6
17:25 1018 30.06 847 25.01 5.2 41.4 77 1.5 34.7
17:30 1018 30.06 847 25.01 5.4 41.7 75 1.4 34.4
17:35 1018 30.06 847 25.01 5.5 41.9 75 1.5 34.6
17:40 1018 30.06 847 25.01 5.5 41.9 75 1.4 34.5
17:45 1018 30.06 847 25.01 5.5 41.8 75 1.3 34.4
17:50 1018 30.06 847 25.01 5.5 41.9 74 1.3 34.4
17:55 1018 30.06 847 25.01 5.6 42 75 1.5 34.8
18:00 1018 30.06 847 25.01 5.6 42.1 74 1.3 34.3
18:05 1018 30.06 848 25.04 5.3 41.6 76 1.5 34.7
18:10 1018 30.06 848 25.04 5.2 41.4 76 1.3 34.4
18:15 1018 30.06 848 25.04 5.2 41.4 77 1.6 34.9
18:20 1019 30.09 848 25.04 5.2 41.4 77 1.6 34.9
18:25 1019 30.09 848 25.04 5.2 41.4 77 1.6 34.8
18:30 1019 30.09 848 25.04 5.3 41.5 77 1.6 34.9
18:35 1019 30.09 848 25.04 5.3 41.5 78 1.7 35.1
18:40 1019 30.09 848 25.04 5.2 41.4 79 1.9 35.4
18:45 1019 30.09 848 25.04 5.2 41.3 80 2.1 35.8
18:50 1019 30.09 848 25.04 5.2 41.4 79 2 35.6
18:55 1019 30.09 848 25.04 5.2 41.4 81 2.3 36.1
19:00 1019 30.09 848 25.04 5.3 41.5 82 2.4 36.4
19:05 1019 30.09 848 25.04 5.2 41.4 83 2.7 36.8
19:10 1019 30.09 848 25.04 5.4 41.7 84 2.8 37.1
19:15 1019 30.09 848 25.04 5.5 42 84 3 37.5
19:20 1019 30.09 848 25.04 5.6 42.1 84 3.1 37.6
19:25 1019 30.09 848 25.04 5.7 42.3 84 3.2 37.7
19:30 1019 30.09 848 25.04 5.7 42.3 83 3.1 37.5
19:35 1019 30.09 848 25.04 5.9 42.5 83 3.1 37.6
19:40 1019 30.09 848 25.04 5.9 42.7 83 3.2 37.8
19:45 1019 30.09 848 25.04 6 42.8 82 3.2 37.8
19:50 1019 30.09 848 25.04 5.8 42.5 81 2.9 37.1
19:55 1019 30.09 849 25.07 5.3 41.5 86 3 37.4
20:00 1019 30.09 849 25.07 4.9 40.8 88 3.1 37.6
20:05 1019 30.09 849 25.07 4.5 40.2 89 2.9 37.2
20:10 1020 30.12 849 25.07 4.4 40 90 2.9 37.3
20:15 1020 30.12 849 25.07 4.4 39.9 90 2.9 37.3
20:20 1020 30.12 849 25.07 4.4 39.9 90 2.9 37.3
20:25 1020 30.12 849 25.07 4.5 40 90 2.9 37.2
20:30 1020 30.12 849 25.07 4.5 40.2 89 2.9 37.3
20:35 1020 30.12 849 25.07 4.6 40.2 90 3 37.4
20:40 1020 30.12 849 25.07 4.6 40.4 90 3.1 37.5
20:45 1020 30.12 849 25.07 4.5 40.1 90 3 37.5
20:50 1020 30.12 849 25.07 4.5 40.1 90 3.1 37.5
20:55 1020 30.12 849 25.07 4.6 40.2 90 3 37.5
21:00 1020 30.12 849 25.07 4.6 40.4 89 3 37.4
21:05 1020 30.12 849 25.07 4.7 40.5 90 3.2 37.7
21:10 1020 30.12 849 25.07 4.8 40.6 89 3.1 37.6
21:15 1020 30.12 849 25.07 4.9 40.8 87 2.9 37.2
21:20 1020 30.12 849 25.07 4.9 40.8 86 2.8 37.1
21:25 1020 30.12 849 25.07 4.9 40.9 86 2.8 37.1
21:30 1020 30.12 849 25.07 5 41 86 2.8 37.1
21:35 1020 30.12 849 25.07 4.9 40.8 85 2.7 36.8
21:40 1020 30.12 849 25.07 4.9 40.8 85 2.6 36.7
21:45 1020 30.12 849 25.07 4.9 40.8 83 2.3 36.2
21:50 1020 30.12 849 25.07 4.9 40.9 83 2.3 36.2
21:55 1020 30.12 850 25.1 4.9 40.9 83 2.3 36.2
22:00 1020 30.12 850 25.1 5 40.9 83 2.3 36.1
22:05 1020 30.12 850 25.1 4.9 40.8 82 2.1 35.8
22:10 1020 30.12 850 25.1 4.8 40.6 82 2 35.6
22:15 1020 30.12 850 25.1 4.7 40.5 82 1.9 35.3
22:20 1020 30.12 850 25.1 4.8 40.6 80 1.7 35
22:25 1020 30.12 850 25.1 4.8 40.6 80 1.5 34.8
22:30 1020 30.12 850 25.1 4.8 40.6 77 1.2 34.1
22:35 1020 30.12 850 25.1 4.8 40.7 77 1.2 34.2
22:40 1020 30.12 850 25.1 4.8 40.7 78 1.3 34.4
22:45 1020 30.12 850 25.1 4.9 40.7 78 1.3 34.4
22:50 1020 30.12 850 25.1 4.9 40.8 78 1.4 34.5
22:55 1020 30.12 850 25.1 4.9 40.8 77 1.2 34.2
23:00 1020 30.12 849 25.07 5 40.9 77 1.2 34.2
23:05 1020 30.12 849 25.07 5 41 77 1.2 34.2
23:10 1020 30.12 849 25.07 5 41 76 1.1 34
23:15 1020 30.12 849 25.07 5 41 75 0.9 33.7
23:20 1020 30.12 849 25.07 5 41 76 1.1 33.9
23:25 1020 30.12 849 25.07 5.1 41.1 75 0.9 33.7
23:30 1020 30.12 849 25.07 5.1 41.1 74 0.8 33.5
23:35 1020 30.12 849 25.07 5.1 41.2 74 0.8 33.5
23:40 1020 30.12 849 25.07 5.1 41.2 74 0.9 33.5
23:45 1020 30.12 849 25.07 5.2 41.4 73 0.7 33.3
23:50 1020 30.12 849 25.07 5.2 41.3 73 0.7 33.3
23:55 1020 30.12 849 25.07 5.2 41.3 73 0.7 33.3
24:00 1020 30.12 849 25.07 5.1 41.2 73 0.6 33.1